sensor_id;sensor_type;location;lat;lon;timestamp;temperature;humidity
72814;DHT22;60945;48.516;-2.768;2023-06-19T00:01:26;16.00;90.50
72814;DHT22;60945;48.516;-2.768;2023-06-19T00:03:51;16.00;90.50
72814;DHT22;60945;48.516;-2.768;2023-06-19T00:06:17;16.00;90.80
72814;DHT22;60945;48.516;-2.768;2023-06-19T00:08:43;16.00;91.10
72814;DHT22;60945;48.516;-2.768;2023-06-19T00:11:08;16.00;91.20
72814;DHT22;60945;48.516;-2.768;2023-06-19T00:13:34;16.00;91.00
72814;DHT22;60945;48.516;-2.768;2023-06-19T00:16:03;15.90;90.90
72814;DHT22;60945;48.516;-2.768;2023-06-19T00:18:30;15.90;91.00
72814;DHT22;60945;48.516;-2.768;2023-06-19T00:20:56;15.90;91.20
72814;DHT22;60945;48.516;-2.768;2023-06-19T00:23:25;15.90;91.30
72814;DHT22;60945;48.516;-2.768;2023-06-19T00:25:50;15.90;91.70
72814;DHT22;60945;48.516;-2.768;2023-06-19T00:28:16;16.10;92.40
72814;DHT22;60945;48.516;-2.768;2023-06-19T00:30:45;16.10;92.40
72814;DHT22;60945;48.516;-2.768;2023-06-19T00:33:10;16.10;92.00
72814;DHT22;60945;48.516;-2.768;2023-06-19T00:35:36;16.10;92.10
72814;DHT22;60945;48.516;-2.768;2023-06-19T00:38:02;16.00;91.90
72814;DHT22;60945;48.516;-2.768;2023-06-19T00:40:32;16.10;92.50
72814;DHT22;60945;48.516;-2.768;2023-06-19T00:42:58;16.10;92.30
72814;DHT22;60945;48.516;-2.768;2023-06-19T00:45:25;16.10;91.90
72814;DHT22;60945;48.516;-2.768;2023-06-19T00:47:52;16.00;92.70
72814;DHT22;60945;48.516;-2.768;2023-06-19T00:50:18;16.00;92.60
72814;DHT22;60945;48.516;-2.768;2023-06-19T00:52:44;16.00;92.70
72814;DHT22;60945;48.516;-2.768;2023-06-19T00:55:10;15.90;93.10
72814;DHT22;60945;48.516;-2.768;2023-06-19T00:57:36;15.90;92.60
72814;DHT22;60945;48.516;-2.768;2023-06-19T01:00:03;15.90;92.90
72814;DHT22;60945;48.516;-2.768;2023-06-19T01:02:33;15.90;93.30
72814;DHT22;60945;48.516;-2.768;2023-06-19T01:04:58;15.90;93.20
72814;DHT22;60945;48.516;-2.768;2023-06-19T01:10:03;15.90;93.30
72814;DHT22;60945;48.516;-2.768;2023-06-19T01:12:39;15.90;93.10
72814;DHT22;60945;48.516;-2.768;2023-06-19T01:15:08;15.90;93.20
72814;DHT22;60945;48.516;-2.768;2023-06-19T01:17:35;15.90;93.00
72814;DHT22;60945;48.516;-2.768;2023-06-19T01:20:01;15.90;92.80
72814;DHT22;60945;48.516;-2.768;2023-06-19T01:22:32;15.90;92.90
72814;DHT22;60945;48.516;-2.768;2023-06-19T01:24:58;15.80;92.90
72814;DHT22;60945;48.516;-2.768;2023-06-19T01:27:25;15.80;93.00
72814;DHT22;60945;48.516;-2.768;2023-06-19T01:29:55;15.80;93.20
72814;DHT22;60945;48.516;-2.768;2023-06-19T01:32:51;15.80;93.20
72814;DHT22;60945;48.516;-2.768;2023-06-19T01:35:21;15.80;93.00
72814;DHT22;60945;48.516;-2.768;2023-06-19T01:37:48;15.80;93.00
72814;DHT22;60945;48.516;-2.768;2023-06-19T01:40:14;15.70;92.90
72814;DHT22;60945;48.516;-2.768;2023-06-19T01:42:41;15.60;92.80
72814;DHT22;60945;48.516;-2.768;2023-06-19T01:45:08;15.60;93.10
72814;DHT22;60945;48.516;-2.768;2023-06-19T01:47:34;15.60;92.90
72814;DHT22;60945;48.516;-2.768;2023-06-19T01:50:00;15.60;93.00
72814;DHT22;60945;48.516;-2.768;2023-06-19T01:52:26;15.60;92.90
72814;DHT22;60945;48.516;-2.768;2023-06-19T01:54:52;15.50;93.20
72814;DHT22;60945;48.516;-2.768;2023-06-19T01:57:18;15.50;93.10
72814;DHT22;60945;48.516;-2.768;2023-06-19T01:59:44;15.50;93.10
72814;DHT22;60945;48.516;-2.768;2023-06-19T02:02:09;15.50;93.00
72814;DHT22;60945;48.516;-2.768;2023-06-19T02:04:36;15.50;92.90
72814;DHT22;60945;48.516;-2.768;2023-06-19T02:07:04;15.40;92.90
72814;DHT22;60945;48.516;-2.768;2023-06-19T02:09:30;15.40;93.00
72814;DHT22;60945;48.516;-2.768;2023-06-19T02:11:55;15.40;93.20
72814;DHT22;60945;48.516;-2.768;2023-06-19T02:14:21;15.40;93.10
72814;DHT22;60945;48.516;-2.768;2023-06-19T02:16:47;15.40;93.20
72814;DHT22;60945;48.516;-2.768;2023-06-19T02:19:12;15.40;93.30
72814;DHT22;60945;48.516;-2.768;2023-06-19T02:21:38;15.30;93.40
72814;DHT22;60945;48.516;-2.768;2023-06-19T02:24:05;15.40;93.60
72814;DHT22;60945;48.516;-2.768;2023-06-19T02:26:31;15.30;93.70
72814;DHT22;60945;48.516;-2.768;2023-06-19T02:28:57;15.30;93.60
72814;DHT22;60945;48.516;-2.768;2023-06-19T02:31:22;15.30;93.20
72814;DHT22;60945;48.516;-2.768;2023-06-19T02:33:48;15.30;93.20
72814;DHT22;60945;48.516;-2.768;2023-06-19T02:36:14;15.30;93.20
72814;DHT22;60945;48.516;-2.768;2023-06-19T02:38:48;15.30;93.40
72814;DHT22;60945;48.516;-2.768;2023-06-19T02:41:15;15.30;93.10
72814;DHT22;60945;48.516;-2.768;2023-06-19T02:43:44;15.40;93.70
72814;DHT22;60945;48.516;-2.768;2023-06-19T02:46:10;15.30;93.30
72814;DHT22;60945;48.516;-2.768;2023-06-19T02:48:35;15.30;93.50
72814;DHT22;60945;48.516;-2.768;2023-06-19T02:51:04;15.40;94.10
72814;DHT22;60945;48.516;-2.768;2023-06-19T02:53:30;15.40;93.40
72814;DHT22;60945;48.516;-2.768;2023-06-19T02:55:55;15.30;93.60
72814;DHT22;60945;48.516;-2.768;2023-06-19T02:58:21;15.30;93.60
72814;DHT22;60945;48.516;-2.768;2023-06-19T03:00:46;15.30;93.30
72814;DHT22;60945;48.516;-2.768;2023-06-19T03:03:12;15.30;93.10
72814;DHT22;60945;48.516;-2.768;2023-06-19T03:05:38;15.40;93.50
72814;DHT22;60945;48.516;-2.768;2023-06-19T03:08:04;15.40;93.50
72814;DHT22;60945;48.516;-2.768;2023-06-19T03:10:30;15.40;93.50
72814;DHT22;60945;48.516;-2.768;2023-06-19T03:12:56;15.50;93.60
72814;DHT22;60945;48.516;-2.768;2023-06-19T03:15:24;15.50;93.80
72814;DHT22;60945;48.516;-2.768;2023-06-19T03:17:50;15.50;93.90
72814;DHT22;60945;48.516;-2.768;2023-06-19T03:20:15;15.50;94.10
72814;DHT22;60945;48.516;-2.768;2023-06-19T03:22:41;15.40;94.00
72814;DHT22;60945;48.516;-2.768;2023-06-19T03:25:08;15.40;93.90
72814;DHT22;60945;48.516;-2.768;2023-06-19T03:27:34;15.40;93.80
72814;DHT22;60945;48.516;-2.768;2023-06-19T03:30:02;15.40;93.60
72814;DHT22;60945;48.516;-2.768;2023-06-19T03:32:32;15.30;93.50
72814;DHT22;60945;48.516;-2.768;2023-06-19T03:34:58;15.30;93.70
72814;DHT22;60945;48.516;-2.768;2023-06-19T03:37:24;15.30;93.90
72814;DHT22;60945;48.516;-2.768;2023-06-19T03:39:49;15.30;93.80
72814;DHT22;60945;48.516;-2.768;2023-06-19T03:42:15;15.30;93.40
72814;DHT22;60945;48.516;-2.768;2023-06-19T03:44:41;15.20;93.30
72814;DHT22;60945;48.516;-2.768;2023-06-19T03:47:07;15.20;93.10
72814;DHT22;60945;48.516;-2.768;2023-06-19T03:49:32;15.20;93.30
72814;DHT22;60945;48.516;-2.768;2023-06-19T03:51:58;15.10;93.30
72814;DHT22;60945;48.516;-2.768;2023-06-19T03:54:24;15.10;93.50
72814;DHT22;60945;48.516;-2.768;2023-06-19T03:56:51;15.10;93.50
72814;DHT22;60945;48.516;-2.768;2023-06-19T03:59:17;15.10;93.80
72814;DHT22;60945;48.516;-2.768;2023-06-19T04:01:43;15.10;93.80
72814;DHT22;60945;48.516;-2.768;2023-06-19T04:04:08;15.10;93.80
72814;DHT22;60945;48.516;-2.768;2023-06-19T04:06:34;15.00;93.60
72814;DHT22;60945;48.516;-2.768;2023-06-19T04:09:00;15.10;94.00
72814;DHT22;60945;48.516;-2.768;2023-06-19T04:11:25;15.10;93.80
72814;DHT22;60945;48.516;-2.768;2023-06-19T04:13:51;15.00;93.50
72814;DHT22;60945;48.516;-2.768;2023-06-19T04:16:17;15.10;93.60
72814;DHT22;60945;48.516;-2.768;2023-06-19T04:18:42;15.10;93.70
72814;DHT22;60945;48.516;-2.768;2023-06-19T04:21:08;15.10;93.70
72814;DHT22;60945;48.516;-2.768;2023-06-19T04:23:34;15.10;93.80
72814;DHT22;60945;48.516;-2.768;2023-06-19T04:26:02;15.10;94.00
72814;DHT22;60945;48.516;-2.768;2023-06-19T04:28:28;15.20;94.40
72814;DHT22;60945;48.516;-2.768;2023-06-19T04:30:54;15.20;94.30
72814;DHT22;60945;48.516;-2.768;2023-06-19T04:33:27;15.30;94.50
72814;DHT22;60945;48.516;-2.768;2023-06-19T04:35:52;15.40;94.30
72814;DHT22;60945;48.516;-2.768;2023-06-19T04:38:18;15.40;93.90
72814;DHT22;60945;48.516;-2.768;2023-06-19T04:40:44;15.50;94.00
72814;DHT22;60945;48.516;-2.768;2023-06-19T04:43:12;15.50;93.70
72814;DHT22;60945;48.516;-2.768;2023-06-19T04:45:40;15.60;93.40
72814;DHT22;60945;48.516;-2.768;2023-06-19T04:48:05;15.60;93.00
72814;DHT22;60945;48.516;-2.768;2023-06-19T04:50:31;15.70;92.80
72814;DHT22;60945;48.516;-2.768;2023-06-19T04:52:57;15.70;92.60
72814;DHT22;60945;48.516;-2.768;2023-06-19T04:55:22;15.80;92.70
72814;DHT22;60945;48.516;-2.768;2023-06-19T04:57:50;15.80;93.00
72814;DHT22;60945;48.516;-2.768;2023-06-19T05:00:16;15.90;92.90
72814;DHT22;60945;48.516;-2.768;2023-06-19T05:02:44;16.00;92.70
72814;DHT22;60945;48.516;-2.768;2023-06-19T05:05:12;16.10;92.70
72814;DHT22;60945;48.516;-2.768;2023-06-19T05:07:40;16.10;92.50
72814;DHT22;60945;48.516;-2.768;2023-06-19T05:10:09;16.20;92.20
72814;DHT22;60945;48.516;-2.768;2023-06-19T05:12:35;16.30;92.00
72814;DHT22;60945;48.516;-2.768;2023-06-19T05:15:01;16.30;91.60
72814;DHT22;60945;48.516;-2.768;2023-06-19T05:17:27;16.50;91.20
72814;DHT22;60945;48.516;-2.768;2023-06-19T05:19:53;16.60;90.80
72814;DHT22;60945;48.516;-2.768;2023-06-19T05:22:19;16.80;89.40
72814;DHT22;60945;48.516;-2.768;2023-06-19T05:24:47;16.90;88.80
72814;DHT22;60945;48.516;-2.768;2023-06-19T05:27:12;17.10;88.00
72814;DHT22;60945;48.516;-2.768;2023-06-19T05:29:38;17.20;87.00
72814;DHT22;60945;48.516;-2.768;2023-06-19T05:32:04;17.30;87.00
72814;DHT22;60945;48.516;-2.768;2023-06-19T05:34:30;17.50;86.20
72814;DHT22;60945;48.516;-2.768;2023-06-19T05:36:58;17.50;85.90
72814;DHT22;60945;48.516;-2.768;2023-06-19T05:39:26;17.70;85.20
72814;DHT22;60945;48.516;-2.768;2023-06-19T05:41:51;17.80;83.90
72814;DHT22;60945;48.516;-2.768;2023-06-19T05:44:17;17.80;84.70
72814;DHT22;60945;48.516;-2.768;2023-06-19T05:46:44;18.00;83.90
72814;DHT22;60945;48.516;-2.768;2023-06-19T05:49:10;18.30;83.10
72814;DHT22;60945;48.516;-2.768;2023-06-19T05:51:38;18.20;82.50
72814;DHT22;60945;48.516;-2.768;2023-06-19T05:54:04;18.00;82.60
72814;DHT22;60945;48.516;-2.768;2023-06-19T05:56:33;18.10;82.80
72814;DHT22;60945;48.516;-2.768;2023-06-19T05:58:59;18.10;83.70
72814;DHT22;60945;48.516;-2.768;2023-06-19T06:01:26;18.30;83.20
72814;DHT22;60945;48.516;-2.768;2023-06-19T06:03:55;18.40;82.30
72814;DHT22;60945;48.516;-2.768;2023-06-19T06:06:22;18.50;81.40
72814;DHT22;60945;48.516;-2.768;2023-06-19T06:08:48;18.60;80.90
72814;DHT22;60945;48.516;-2.768;2023-06-19T06:11:14;18.60;81.00
72814;DHT22;60945;48.516;-2.768;2023-06-19T06:13:40;18.70;80.40
72814;DHT22;60945;48.516;-2.768;2023-06-19T06:16:08;18.60;81.50
72814;DHT22;60945;48.516;-2.768;2023-06-19T06:18:35;18.80;80.40
72814;DHT22;60945;48.516;-2.768;2023-06-19T06:21:00;18.70;80.20
72814;DHT22;60945;48.516;-2.768;2023-06-19T06:23:26;18.80;80.30
72814;DHT22;60945;48.516;-2.768;2023-06-19T06:25:52;18.80;80.10
72814;DHT22;60945;48.516;-2.768;2023-06-19T06:28:17;19.00;79.50
72814;DHT22;60945;48.516;-2.768;2023-06-19T06:30:43;19.00;78.50
72814;DHT22;60945;48.516;-2.768;2023-06-19T06:33:09;18.70;79.70
72814;DHT22;60945;48.516;-2.768;2023-06-19T06:35:35;18.40;81.20
72814;DHT22;60945;48.516;-2.768;2023-06-19T06:38:02;18.20;81.60
72814;DHT22;60945;48.516;-2.768;2023-06-19T06:40:31;18.20;82.40
72814;DHT22;60945;48.516;-2.768;2023-06-19T06:42:56;18.10;82.10
72814;DHT22;60945;48.516;-2.768;2023-06-19T06:45:22;18.20;82.10
72814;DHT22;60945;48.516;-2.768;2023-06-19T06:47:48;18.30;82.10
72814;DHT22;60945;48.516;-2.768;2023-06-19T06:50:13;18.30;81.60
72814;DHT22;60945;48.516;-2.768;2023-06-19T06:52:39;18.50;80.50
72814;DHT22;60945;48.516;-2.768;2023-06-19T06:55:05;18.60;80.40
72814;DHT22;60945;48.516;-2.768;2023-06-19T06:57:31;18.60;80.90
72814;DHT22;60945;48.516;-2.768;2023-06-19T06:59:56;18.60;80.40
72814;DHT22;60945;48.516;-2.768;2023-06-19T07:02:22;18.80;79.50
72814;DHT22;60945;48.516;-2.768;2023-06-19T07:04:48;18.90;79.60
72814;DHT22;60945;48.516;-2.768;2023-06-19T07:07:19;19.10;77.80
72814;DHT22;60945;48.516;-2.768;2023-06-19T07:09:46;18.80;78.50
72814;DHT22;60945;48.516;-2.768;2023-06-19T07:12:13;19.00;78.60
72814;DHT22;60945;48.516;-2.768;2023-06-19T07:14:42;19.20;77.00
72814;DHT22;60945;48.516;-2.768;2023-06-19T07:17:07;19.20;77.00
72814;DHT22;60945;48.516;-2.768;2023-06-19T07:19:33;19.20;76.50
72814;DHT22;60945;48.516;-2.768;2023-06-19T07:21:59;19.20;76.30
72814;DHT22;60945;48.516;-2.768;2023-06-19T07:24:25;19.20;76.00
72814;DHT22;60945;48.516;-2.768;2023-06-19T07:26:51;19.40;76.40
72814;DHT22;60945;48.516;-2.768;2023-06-19T07:29:18;19.90;73.60
72814;DHT22;60945;48.516;-2.768;2023-06-19T07:31:44;20.20;72.30
72814;DHT22;60945;48.516;-2.768;2023-06-19T07:34:09;20.60;70.80
72814;DHT22;60945;48.516;-2.768;2023-06-19T07:36:35;20.80;69.40
72814;DHT22;60945;48.516;-2.768;2023-06-19T07:39:01;20.40;70.60
72814;DHT22;60945;48.516;-2.768;2023-06-19T07:41:27;20.40;70.70
72814;DHT22;60945;48.516;-2.768;2023-06-19T07:43:53;20.40;70.40
72814;DHT22;60945;48.516;-2.768;2023-06-19T07:46:19;20.10;71.70
72814;DHT22;60945;48.516;-2.768;2023-06-19T07:48:44;19.90;72.30
72814;DHT22;60945;48.516;-2.768;2023-06-19T07:51:12;20.00;71.70
72814;DHT22;60945;48.516;-2.768;2023-06-19T07:53:41;19.90;72.90
72814;DHT22;60945;48.516;-2.768;2023-06-19T07:56:08;20.10;73.60
72814;DHT22;60945;48.516;-2.768;2023-06-19T07:58:35;20.70;70.60
72814;DHT22;60945;48.516;-2.768;2023-06-19T08:01:00;20.90;70.20
72814;DHT22;60945;48.516;-2.768;2023-06-19T08:03:26;21.30;67.80
72814;DHT22;60945;48.516;-2.768;2023-06-19T08:05:55;20.90;68.80
72814;DHT22;60945;48.516;-2.768;2023-06-19T08:08:21;21.10;68.80
72814;DHT22;60945;48.516;-2.768;2023-06-19T08:10:47;21.10;66.50
72814;DHT22;60945;48.516;-2.768;2023-06-19T08:13:12;21.20;67.10
72814;DHT22;60945;48.516;-2.768;2023-06-19T08:15:38;21.50;65.90
72814;DHT22;60945;48.516;-2.768;2023-06-19T08:18:04;21.50;65.60
72814;DHT22;60945;48.516;-2.768;2023-06-19T08:20:29;21.60;64.30
72814;DHT22;60945;48.516;-2.768;2023-06-19T08:22:55;21.70;64.60
72814;DHT22;60945;48.516;-2.768;2023-06-19T08:25:22;21.70;63.80
72814;DHT22;60945;48.516;-2.768;2023-06-19T08:27:48;22.00;62.70
72814;DHT22;60945;48.516;-2.768;2023-06-19T08:30:14;22.00;62.70
72814;DHT22;60945;48.516;-2.768;2023-06-19T08:32:39;22.10;61.70
72814;DHT22;60945;48.516;-2.768;2023-06-19T08:35:05;22.30;61.60
72814;DHT22;60945;48.516;-2.768;2023-06-19T08:37:31;22.50;60.50
72814;DHT22;60945;48.516;-2.768;2023-06-19T08:39:57;22.90;59.80
72814;DHT22;60945;48.516;-2.768;2023-06-19T08:42:22;22.70;59.90
72814;DHT22;60945;48.516;-2.768;2023-06-19T08:44:48;23.00;59.30
72814;DHT22;60945;48.516;-2.768;2023-06-19T08:47:14;23.50;56.60
72814;DHT22;60945;48.516;-2.768;2023-06-19T08:49:40;23.00;58.50
72814;DHT22;60945;48.516;-2.768;2023-06-19T08:52:06;22.70;59.20
72814;DHT22;60945;48.516;-2.768;2023-06-19T08:54:33;23.00;57.80
72814;DHT22;60945;48.516;-2.768;2023-06-19T08:57:02;22.70;58.90
72814;DHT22;60945;48.516;-2.768;2023-06-19T08:59:29;22.40;59.80
72814;DHT22;60945;48.516;-2.768;2023-06-19T09:01:57;22.10;61.00
72814;DHT22;60945;48.516;-2.768;2023-06-19T09:04:25;22.50;58.50
72814;DHT22;60945;48.516;-2.768;2023-06-19T09:09:22;22.10;60.10
72814;DHT22;60945;48.516;-2.768;2023-06-19T09:12:17;23.10;57.90
72814;DHT22;60945;48.516;-2.768;2023-06-19T09:14:44;24.30;54.20
72814;DHT22;60945;48.516;-2.768;2023-06-19T09:17:12;24.70;52.60
72814;DHT22;60945;48.516;-2.768;2023-06-19T09:19:38;24.90;51.60
72814;DHT22;60945;48.516;-2.768;2023-06-19T09:22:07;24.90;51.40
72814;DHT22;60945;48.516;-2.768;2023-06-19T09:24:40;25.30;50.50
72814;DHT22;60945;48.516;-2.768;2023-06-19T09:29:36;25.80;49.20
72814;DHT22;60945;48.516;-2.768;2023-06-19T09:32:17;24.70;50.50
72814;DHT22;60945;48.516;-2.768;2023-06-19T09:34:43;23.70;53.50
72814;DHT22;60945;48.516;-2.768;2023-06-19T09:37:09;23.70;52.90
72814;DHT22;60945;48.516;-2.768;2023-06-19T09:39:37;23.80;53.30
72814;DHT22;60945;48.516;-2.768;2023-06-19T09:42:03;25.40;50.10
72814;DHT22;60945;48.516;-2.768;2023-06-19T09:44:35;26.70;45.70
72814;DHT22;60945;48.516;-2.768;2023-06-19T09:47:23;27.00;45.00
72814;DHT22;60945;48.516;-2.768;2023-06-19T09:49:54;27.70;43.60
72814;DHT22;60945;48.516;-2.768;2023-06-19T09:52:21;27.00;44.70
72814;DHT22;60945;48.516;-2.768;2023-06-19T09:54:54;26.80;44.90
72814;DHT22;60945;48.516;-2.768;2023-06-19T09:57:20;27.20;44.10
72814;DHT22;60945;48.516;-2.768;2023-06-19T09:59:52;27.80;43.70
72814;DHT22;60945;48.516;-2.768;2023-06-19T10:02:19;28.70;42.30
72814;DHT22;60945;48.516;-2.768;2023-06-19T10:04:54;29.40;40.80
72814;DHT22;60945;48.516;-2.768;2023-06-19T10:07:32;26.30;46.20
72814;DHT22;60945;48.516;-2.768;2023-06-19T10:10:06;26.60;47.30
72814;DHT22;60945;48.516;-2.768;2023-06-19T10:12:36;29.30;40.80
72814;DHT22;60945;48.516;-2.768;2023-06-19T10:15:20;30.30;40.10
72814;DHT22;60945;48.516;-2.768;2023-06-19T10:17:52;29.30;41.10
72814;DHT22;60945;48.516;-2.768;2023-06-19T10:20:31;27.10;44.30
72814;DHT22;60945;48.516;-2.768;2023-06-19T10:25:43;26.10;47.20
72814;DHT22;60945;48.516;-2.768;2023-06-19T10:28:29;26.30;47.40
72814;DHT22;60945;48.516;-2.768;2023-06-19T10:30:59;27.30;46.30
72814;DHT22;60945;48.516;-2.768;2023-06-19T10:33:26;30.80;39.80
72814;DHT22;60945;48.516;-2.768;2023-06-19T10:35:53;34.10;34.30
72814;DHT22;60945;48.516;-2.768;2023-06-19T10:38:19;36.20;31.40
72814;DHT22;60945;48.516;-2.768;2023-06-19T10:40:45;37.80;29.20
72814;DHT22;60945;48.516;-2.768;2023-06-19T10:43:12;35.90;30.50
72814;DHT22;60945;48.516;-2.768;2023-06-19T10:45:38;35.20;31.90
72814;DHT22;60945;48.516;-2.768;2023-06-19T10:48:05;36.10;31.10
72814;DHT22;60945;48.516;-2.768;2023-06-19T10:50:35;38.20;28.60
72814;DHT22;60945;48.516;-2.768;2023-06-19T10:53:09;40.30;27.20
72814;DHT22;60945;48.516;-2.768;2023-06-19T10:55:35;40.90;25.60
72814;DHT22;60945;48.516;-2.768;2023-06-19T10:58:00;41.40;25.60
72814;DHT22;60945;48.516;-2.768;2023-06-19T11:00:28;35.80;30.60
72814;DHT22;60945;48.516;-2.768;2023-06-19T11:02:56;32.00;35.40
72814;DHT22;60945;48.516;-2.768;2023-06-19T11:05:26;29.90;39.90
72814;DHT22;60945;48.516;-2.768;2023-06-19T11:07:57;28.70;41.20
72814;DHT22;60945;48.516;-2.768;2023-06-19T11:10:25;27.80;43.30
72814;DHT22;60945;48.516;-2.768;2023-06-19T11:12:56;33.60;34.00
72814;DHT22;60945;48.516;-2.768;2023-06-19T11:15:34;32.20;35.70
72814;DHT22;60945;48.516;-2.768;2023-06-19T11:18:01;31.50;37.20
72814;DHT22;60945;48.516;-2.768;2023-06-19T11:20:28;32.00;36.20
72814;DHT22;60945;48.516;-2.768;2023-06-19T11:23:01;32.90;35.20
72814;DHT22;60945;48.516;-2.768;2023-06-19T11:25:40;37.10;30.40
72814;DHT22;60945;48.516;-2.768;2023-06-19T11:28:14;37.30;29.40
72814;DHT22;60945;48.516;-2.768;2023-06-19T11:30:40;36.00;30.40
72814;DHT22;60945;48.516;-2.768;2023-06-19T11:33:26;40.20;26.70
72814;DHT22;60945;48.516;-2.768;2023-06-19T11:35:53;43.80;23.50
72814;DHT22;60945;48.516;-2.768;2023-06-19T11:38:24;44.30;22.20
72814;DHT22;60945;48.516;-2.768;2023-06-19T11:40:50;38.60;26.90
72814;DHT22;60945;48.516;-2.768;2023-06-19T11:43:32;35.20;30.90
72814;DHT22;60945;48.516;-2.768;2023-06-19T11:46:05;32.60;34.10
72814;DHT22;60945;48.516;-2.768;2023-06-19T11:48:30;30.80;36.70
72814;DHT22;60945;48.516;-2.768;2023-06-19T11:50:56;29.90;38.70
72814;DHT22;60945;48.516;-2.768;2023-06-19T11:53:23;29.80;39.70
72814;DHT22;60945;48.516;-2.768;2023-06-19T11:55:50;28.90;40.10
72814;DHT22;60945;48.516;-2.768;2023-06-19T11:58:16;29.00;39.90
72814;DHT22;60945;48.516;-2.768;2023-06-19T12:00:42;29.10;39.50
72814;DHT22;60945;48.516;-2.768;2023-06-19T12:03:08;33.00;35.90
72814;DHT22;60945;48.516;-2.768;2023-06-19T12:05:35;39.40;27.60
72814;DHT22;60945;48.516;-2.768;2023-06-19T12:08:01;38.60;26.90
72814;DHT22;60945;48.516;-2.768;2023-06-19T12:10:28;40.30;25.80
72814;DHT22;60945;48.516;-2.768;2023-06-19T12:12:54;41.10;25.30
72814;DHT22;60945;48.516;-2.768;2023-06-19T12:15:19;39.90;24.90
72814;DHT22;60945;48.516;-2.768;2023-06-19T12:17:46;36.00;28.90
72814;DHT22;60945;48.516;-2.768;2023-06-19T12:20:12;34.00;31.50
72814;DHT22;60945;48.516;-2.768;2023-06-19T12:22:39;32.00;34.90
72814;DHT22;60945;48.516;-2.768;2023-06-19T12:25:05;30.20;37.80
72814;DHT22;60945;48.516;-2.768;2023-06-19T12:27:31;29.30;39.30
72814;DHT22;60945;48.516;-2.768;2023-06-19T12:29:59;29.40;38.80
72814;DHT22;60945;48.516;-2.768;2023-06-19T12:32:25;32.00;35.60
72814;DHT22;60945;48.516;-2.768;2023-06-19T12:34:51;30.90;35.70
72814;DHT22;60945;48.516;-2.768;2023-06-19T12:37:22;29.00;38.80
72814;DHT22;60945;48.516;-2.768;2023-06-19T12:39:49;28.30;39.80
72814;DHT22;60945;48.516;-2.768;2023-06-19T12:42:15;28.00;41.00
72814;DHT22;60945;48.516;-2.768;2023-06-19T12:44:42;28.30;41.10
72814;DHT22;60945;48.516;-2.768;2023-06-19T12:47:10;28.80;40.50
72814;DHT22;60945;48.516;-2.768;2023-06-19T12:49:36;28.80;40.90
72814;DHT22;60945;48.516;-2.768;2023-06-19T12:52:05;30.30;38.30
72814;DHT22;60945;48.516;-2.768;2023-06-19T12:54:30;29.60;38.90
72814;DHT22;60945;48.516;-2.768;2023-06-19T12:56:57;29.60;39.20
72814;DHT22;60945;48.516;-2.768;2023-06-19T12:59:22;31.70;35.70
72814;DHT22;60945;48.516;-2.768;2023-06-19T13:01:50;29.60;38.40
72814;DHT22;60945;48.516;-2.768;2023-06-19T13:04:16;27.90;41.80
72814;DHT22;60945;48.516;-2.768;2023-06-19T13:06:41;28.00;41.60
72814;DHT22;60945;48.516;-2.768;2023-06-19T13:09:07;29.10;40.00
72814;DHT22;60945;48.516;-2.768;2023-06-19T13:11:36;29.30;38.80
72814;DHT22;60945;48.516;-2.768;2023-06-19T13:14:02;29.00;39.60
72814;DHT22;60945;48.516;-2.768;2023-06-19T13:16:27;29.40;40.90
72814;DHT22;60945;48.516;-2.768;2023-06-19T13:18:53;30.50;37.10
72814;DHT22;60945;48.516;-2.768;2023-06-19T13:21:19;29.30;39.00
72814;DHT22;60945;48.516;-2.768;2023-06-19T13:23:47;29.10;39.30
72814;DHT22;60945;48.516;-2.768;2023-06-19T13:26:23;29.40;38.40
72814;DHT22;60945;48.516;-2.768;2023-06-19T13:28:49;33.70;34.20
72814;DHT22;60945;48.516;-2.768;2023-06-19T13:31:15;37.80;29.00
72814;DHT22;60945;48.516;-2.768;2023-06-19T13:33:41;44.30;23.30
72814;DHT22;60945;48.516;-2.768;2023-06-19T13:36:07;48.10;20.60
72814;DHT22;60945;48.516;-2.768;2023-06-19T13:38:33;50.40;19.30
72814;DHT22;60945;48.516;-2.768;2023-06-19T13:40:58;47.30;18.80
72814;DHT22;60945;48.516;-2.768;2023-06-19T13:43:24;42.60;22.30
72814;DHT22;60945;48.516;-2.768;2023-06-19T13:45:50;46.10;20.80
72814;DHT22;60945;48.516;-2.768;2023-06-19T13:48:16;45.40;21.00
72814;DHT22;60945;48.516;-2.768;2023-06-19T13:50:41;46.00;19.80
72814;DHT22;60945;48.516;-2.768;2023-06-19T13:53:07;40.00;23.70
72814;DHT22;60945;48.516;-2.768;2023-06-19T13:55:33;35.60;27.60
72814;DHT22;60945;48.516;-2.768;2023-06-19T13:57:58;35.80;28.60
72814;DHT22;60945;48.516;-2.768;2023-06-19T14:00:24;38.00;26.90
72814;DHT22;60945;48.516;-2.768;2023-06-19T14:02:50;43.00;23.40
72814;DHT22;60945;48.516;-2.768;2023-06-19T14:05:16;44.20;20.90
72814;DHT22;60945;48.516;-2.768;2023-06-19T14:07:42;40.80;23.40
72814;DHT22;60945;48.516;-2.768;2023-06-19T14:10:08;39.70;25.00
72814;DHT22;60945;48.516;-2.768;2023-06-19T14:12:34;36.70;27.80
72814;DHT22;60945;48.516;-2.768;2023-06-19T14:15:00;37.10;27.40
72814;DHT22;60945;48.516;-2.768;2023-06-19T14:17:25;35.20;28.30
72814;DHT22;60945;48.516;-2.768;2023-06-19T14:19:51;35.00;28.90
72814;DHT22;60945;48.516;-2.768;2023-06-19T14:22:17;33.20;31.40
72814;DHT22;60945;48.516;-2.768;2023-06-19T14:24:44;32.80;32.90
72814;DHT22;60945;48.516;-2.768;2023-06-19T14:27:09;34.20;32.00
72814;DHT22;60945;48.516;-2.768;2023-06-19T14:29:35;39.90;26.20
72814;DHT22;60945;48.516;-2.768;2023-06-19T14:32:01;38.80;26.50
72814;DHT22;60945;48.516;-2.768;2023-06-19T14:34:28;37.80;26.30
72814;DHT22;60945;48.516;-2.768;2023-06-19T14:36:54;34.20;31.10
72814;DHT22;60945;48.516;-2.768;2023-06-19T14:39:20;32.20;34.30
72814;DHT22;60945;48.516;-2.768;2023-06-19T14:41:45;31.40;34.60
72814;DHT22;60945;48.516;-2.768;2023-06-19T14:44:14;30.90;35.80
72814;DHT22;60945;48.516;-2.768;2023-06-19T14:46:40;30.60;36.50
72814;DHT22;60945;48.516;-2.768;2023-06-19T14:49:07;30.90;36.60
72814;DHT22;60945;48.516;-2.768;2023-06-19T14:51:32;33.70;33.10
72814;DHT22;60945;48.516;-2.768;2023-06-19T14:53:58;38.00;28.70
72814;DHT22;60945;48.516;-2.768;2023-06-19T14:56:24;35.20;30.50
72814;DHT22;60945;48.516;-2.768;2023-06-19T14:58:49;32.10;34.40
72814;DHT22;60945;48.516;-2.768;2023-06-19T15:01:15;31.10;36.20
72814;DHT22;60945;48.516;-2.768;2023-06-19T15:03:42;30.30;36.70
72814;DHT22;60945;48.516;-2.768;2023-06-19T15:06:07;29.60;38.60
72814;DHT22;60945;48.516;-2.768;2023-06-19T15:08:33;29.60;38.60
72814;DHT22;60945;48.516;-2.768;2023-06-19T15:11:01;28.60;40.20
72814;DHT22;60945;48.516;-2.768;2023-06-19T15:13:29;27.60;41.80
72814;DHT22;60945;48.516;-2.768;2023-06-19T15:15:54;27.80;42.40
72814;DHT22;60945;48.516;-2.768;2023-06-19T15:18:23;29.70;38.80
72814;DHT22;60945;48.516;-2.768;2023-06-19T15:20:48;30.20;37.90
72814;DHT22;60945;48.516;-2.768;2023-06-19T15:23:14;30.50;38.00
72814;DHT22;60945;48.516;-2.768;2023-06-19T15:25:40;31.10;36.50